createdAt,value
2022-11-01T00:10:37.576Z,98947.06
2022-11-01T00:21:04.919Z,98938.54
2022-11-01T00:31:32.293Z,98925.30
2022-11-01T00:41:59.709Z,98904.34
2022-11-01T00:52:26.996Z,98898.19
2022-11-01T01:02:54.397Z,98897.16
2022-11-01T01:13:22.101Z,98887.81
2022-11-01T01:23:51.452Z,98886.54
2022-11-01T01:34:19.183Z,98868.38
2022-11-01T01:45:11.991Z,98857.93
2022-11-01T01:55:44.087Z,98856.45
2022-11-01T02:06:13.837Z,98854.55
2022-11-01T02:16:53.564Z,98841.73
2022-11-01T02:27:28.800Z,98829.16
2022-11-01T02:38:02.628Z,98843.27
2022-11-01T02:48:30.392Z,98841.10
2022-11-01T02:58:59.091Z,98838.49
2022-11-01T03:09:26.869Z,98838.73
2022-11-01T03:20:00.692Z,98839.09
2022-11-01T03:30:30.628Z,98847.78
2022-11-01T03:41:01.575Z,98851.09
2022-11-01T03:51:28.953Z,98840.43
2022-11-01T04:01:56.386Z,98833.66
2022-11-01T04:12:23.827Z,98821.29
2022-11-01T04:22:51.135Z,98815.30
2022-11-01T04:33:18.551Z,98809.41
2022-11-01T04:43:46.009Z,98804.55
2022-11-01T04:54:13.419Z,98796.86
2022-11-01T05:04:40.669Z,98786.02
2022-11-01T05:15:10.683Z,98784.02
2022-11-01T05:25:38.442Z,98786.55
2022-11-01T05:36:06.381Z,98780.78
2022-11-01T05:46:33.647Z,98770.64
2022-11-01T05:57:00.972Z,98779.12
2022-11-01T06:07:28.756Z,98783.05
2022-11-01T06:17:59.872Z,98781.05
2022-11-01T06:28:27.559Z,98786.18
2022-11-01T06:38:54.896Z,98774.13
2022-11-01T06:49:22.365Z,98780.47
2022-11-01T06:59:49.756Z,98785.30
2022-11-01T07:10:17.252Z,98786.77
2022-11-01T07:20:44.598Z,98785.58
2022-11-01T07:31:12.156Z,98782.48
2022-11-01T07:41:39.679Z,98782.70
2022-11-01T07:52:07.065Z,98783.21
2022-11-01T08:02:34.998Z,98773.60
2022-11-01T08:13:07.565Z,98780.10
2022-11-01T08:23:34.865Z,98784.42
2022-11-01T08:34:02.244Z,98785.17
2022-11-01T08:44:29.769Z,98791.14
2022-11-01T08:54:57.173Z,98791.16
2022-11-01T09:05:24.637Z,98790.48
2022-11-01T09:15:52.699Z,98799.86
2022-11-01T09:26:20.171Z,98801.83
2022-11-01T09:36:47.831Z,98804.61
2022-11-01T09:47:20.566Z,98812.66
2022-11-01T09:57:54.503Z,98824.08
2022-11-01T10:08:37.062Z,98811.21
2022-11-01T10:19:11.551Z,98810.32
2022-11-01T10:29:47.453Z,98804.10
2022-11-01T10:40:21.033Z,98794.73
2022-11-01T10:50:49.181Z,98790.48
2022-11-01T11:01:22.066Z,98787.15
2022-11-01T11:11:50.988Z,98793.36
2022-11-01T11:22:18.608Z,98799.98
2022-11-01T11:32:50.568Z,98797.95
2022-11-01T11:43:24.295Z,98795.48
2022-11-01T11:54:22.412Z,98796.92
2022-11-01T12:04:55.242Z,98807.30
2022-11-01T12:15:31.061Z,98805.36
2022-11-01T12:26:01.307Z,98806.64
2022-11-01T12:36:32.781Z,98811.40
2022-11-01T12:47:05.629Z,98817.39
2022-11-01T12:57:34.925Z,98828.15
2022-11-01T13:08:13.866Z,98839.21
2022-11-01T13:18:48.977Z,98842.73
2022-11-01T13:29:23.062Z,98854.35
2022-11-01T13:40:04.721Z,98867.20
2022-11-01T13:51:01.485Z,98865.19
2022-11-01T14:01:36.500Z,98873.05
2022-11-01T14:12:31.073Z,98877.40
2022-11-01T14:22:59.816Z,98889.34
2022-11-01T14:33:27.271Z,98884.96
2022-11-01T14:54:43.393Z,98885.11
2022-11-01T15:05:15.315Z,98891.50
2022-11-01T15:15:42.745Z,98896.22
2022-11-01T15:26:13.346Z,98905.69
2022-11-01T15:36:41.788Z,98903.44
2022-11-01T15:47:15.858Z,98910.20
2022-11-01T15:57:47.005Z,98923.63
2022-11-01T16:08:22.821Z,98928.21
2022-11-01T16:18:50.363Z,98933.88
2022-11-01T16:29:18.240Z,98933.55
2022-11-01T16:39:47.052Z,98930.98
2022-11-01T16:50:20.002Z,98944.64
2022-11-01T17:00:54.702Z,98953.82
2022-11-01T17:11:22.461Z,98967.20
2022-11-01T17:21:50.518Z,98982.98
2022-11-01T17:32:17.882Z,98995.04
2022-11-01T17:42:45.226Z,98991.51
2022-11-01T17:53:21.735Z,98993.38
2022-11-01T18:03:49.437Z,99004.17
2022-11-01T18:14:20.810Z,99001.02
2022-11-01T18:24:52.825Z,99001.77
2022-11-01T18:35:31.905Z,98998.67
2022-11-01T18:56:51.720Z,99010.89
2022-11-01T19:07:21.653Z,99023.13
2022-11-01T19:17:53.160Z,99024.47
2022-11-01T19:28:27.751Z,99034.35
2022-11-01T19:38:55.703Z,99050.73
2022-11-01T19:49:26.285Z,99054.05
2022-11-01T19:59:53.889Z,99055.80
2022-11-01T20:10:21.227Z,99057.75
2022-11-01T20:20:48.544Z,99063.63
2022-11-01T20:31:15.830Z,99073.02
2022-11-01T20:41:43.176Z,99081.88
2022-11-01T20:52:38.135Z,99087.94
2022-11-01T21:02:58.989Z,99103.05
2022-11-01T21:13:30.224Z,99108.83
2022-11-01T21:23:58.581Z,99117.88
2022-11-01T21:34:32.073Z,99116.45
2022-11-01T21:44:59.980Z,99118.34
2022-11-01T21:55:27.313Z,99116.42
2022-11-01T22:05:55.084Z,99110.33
2022-11-01T22:16:22.688Z,99098.14
2022-11-01T22:26:50.013Z,99098.73
2022-11-01T22:37:17.300Z,99106.61
2022-11-01T22:47:46.134Z,99097.17
2022-11-01T22:58:32.524Z,99094.46
2022-11-01T23:09:05.583Z,99090.08
2022-11-01T23:19:33.628Z,99098.34
2022-11-01T23:30:02.704Z,99093.45
2022-11-01T23:40:34.676Z,99088.03
2022-11-01T23:51:02.152Z,99094.60
